To NAV CANADA Home Page Login to a new session Search on AWWS site Feedback and Comments Disclaimer Vers la page française équivalente Tips FAQ What's new on the site To the Forecasts and Observations / NOTAM section To "File a Flight Plan" website Publications and other links Update of the User's profile FIC Telephone Numbers My Weather Data Folder Route Weather Data Regional Weather Data Local Weather Data To the Forecasts and Observations / NOTAM section
Request Generated 12/04/2016 at 22:23:45 UTC . Weather information available at that time is displayed.

METAR/TAF

EDMONTON INTL/AB    

METAR CYEG 042200Z 31014G25KT 15SM BKN036 BKN068 M03/M10 A2965 RMK
SC7AC1 AC TR SLP081=
METAR CYEG 042100Z 30012G19KT 15SM FEW068 SCT140 SCT230 M03/M09 A2963
RMK AC2AC1CI1 SLP072=
METAR CYEG 042000Z 29013G19KT 15SM FEW140 FEW230 M03/M10 A2962 RMK
AC1CI2 AC TR SLP072=

TAF CYEG 042038Z 0421/0518 29012G22KT P6SM FEW140 SCT220
FM042300 31012G22KT P6SM BKN030 TEMPO 0423/0501 5SM -SN OVC020
FM050100 33015G25KT 3SM -SN OVC020 TEMPO 0501/0505 3/4SM -SN
VV008
FM050500 33012G22KT 2SM -SN OVC015 TEMPO 0505/0518 5SM -SN OVC025
RMK NXT FCST BY 050000Z=
Your time UTC time
Weather data provided by Environment Canada and NAV CANADA